Time;durP1;ratioP1;P1;durP2;ratioP2;P2;SDS_P1;SDS_P2;PMS_P1;PMS_P2;Temp;Humidity;BMP_temperature;BMP_pressure;BME280_temperature;BME280_humidity;BME280_pressure;Samples;Min_cycle;Max_cycle;Signal;HPM_P1;HPM_P2
2021/03/12 00:01:27;;;;;;;14.70;7.22;;;;;;;3.49;55.51;99000.11;1760104;81;21193;-82
2021/03/12 00:03:55;;;;;;;18.25;7.62;;;;;;;3.48;54.70;98987.25;1762685;81;21283;-82
2021/03/12 00:06:22;;;;;;;14.58;6.10;;;;;;;3.46;54.73;99000.13;1747790;81;21312;-81
2021/03/12 00:08:49;;;;;;;13.98;6.87;;;;;;;3.46;54.39;98995.38;1753709;80;21294;-82
2021/03/12 00:11:21;;;;;;;14.05;6.72;;;;;;;3.44;54.79;98990.23;1762603;81;21181;-81
2021/03/12 00:13:48;;;;;;;17.35;7.30;;;;;;;3.45;54.55;98989.83;1762259;81;21328;-81
2021/03/12 00:16:15;;;;;;;16.02;6.67;;;;;;;3.44;54.49;98993.23;1710165;84;21165;-83
2021/03/12 00:18:45;;;;;;;16.05;6.42;;;;;;;3.39;55.48;98982.52;1762709;81;22372;-82
2021/03/12 00:21:15;;;;;;;18.02;7.08;;;;;;;3.37;56.29;98977.81;1757081;81;21208;-82
2021/03/12 00:23:43;;;;;;;14.40;5.47;;;;;;;3.35;56.62;98983.38;1757079;81;21292;-81
2021/03/12 00:26:11;;;;;;;19.12;7.28;;;;;;;3.36;55.13;98986.39;1756624;81;22059;-82
2021/03/12 00:28:39;;;;;;;17.90;6.90;;;;;;;3.36;55.65;98989.36;1759753;81;21288;-82
2021/03/12 00:31:07;;;;;;;15.50;7.20;;;;;;;3.35;55.58;98991.52;1702629;84;21728;-83
2021/03/12 00:33:35;;;;;;;17.75;7.70;;;;;;;3.32;55.44;98988.92;1757743;81;21290;-81
2021/03/12 00:36:05;;;;;;;20.35;6.83;;;;;;;3.32;55.49;98994.95;1754382;81;21289;-83
2021/03/12 00:38:32;;;;;;;17.90;7.53;;;;;;;3.31;55.80;98974.38;1757380;81;21300;-82
2021/03/12 00:41:03;;;;;;;19.90;7.12;;;;;;;3.28;56.49;98948.27;1752114;81;21173;-82
2021/03/12 00:43:34;;;;;;;15.15;6.42;;;;;;;3.28;55.90;98943.13;1747676;82;21177;-81
2021/03/12 00:46:08;;;;;;;14.15;6.17;;;;;;;3.29;56.01;98940.13;1736677;82;21323;-82
2021/03/12 00:48:38;;;;;;;15.72;5.47;;;;;;;3.31;55.52;98949.53;1713058;82;21274;-83
2021/03/12 00:51:06;;;;;;;14.55;6.42;;;;;;;3.32;54.91;98948.70;1772436;81;21106;-83
2021/03/12 00:53:35;;;;;;;15.85;6.87;;;;;;;3.32;55.14;98934.56;1769575;81;21305;-83
2021/03/12 00:56:04;;;;;;;16.00;6.53;;;;;;;3.30;55.22;98936.27;1762527;81;21252;-82
2021/03/12 00:58:32;;;;;;;18.30;6.55;;;;;;;3.30;54.71;98937.96;1787567;79;21755;-82
2021/03/12 01:01:01;;;;;;;11.60;4.63;;;;;;;3.26;55.83;98946.09;1815974;79;21264;-82
2021/03/12 01:03:30;;;;;;;12.45;6.15;;;;;;;3.26;54.69;98936.25;1745501;82;21184;-81
2021/03/12 01:05:59;;;;;;;16.35;6.20;;;;;;;3.24;54.83;98929.81;1750007;81;21260;-82
2021/03/12 01:08:28;;;;;;;15.83;6.10;;;;;;;3.21;55.04;98927.69;1799674;79;21174;-81
2021/03/12 01:10:57;;;;;;;16.20;6.10;;;;;;;3.20;54.94;98926.81;1818410;79;21303;-83
2021/03/12 01:13:24;;;;;;;11.25;5.58;;;;;;;3.21;54.96;98912.27;1818676;79;21270;-83
2021/03/12 01:15:51;;;;;;;14.98;6.30;;;;;;;3.18;55.20;98907.97;1814334;79;21153;-81
2021/03/12 01:18:21;;;;;;;15.30;6.35;;;;;;;3.21;54.85;98901.56;1768244;81;21292;-82
2021/03/12 01:20:49;;;;;;;15.03;5.87;;;;;;;3.19;54.90;98896.42;1749040;82;21280;-81
2021/03/12 01:23:18;;;;;;;14.50;6.60;;;;;;;3.21;54.62;98900.72;1763132;81;21164;-82
2021/03/12 01:25:46;;;;;;;13.90;6.40;;;;;;;3.19;55.05;98897.70;1740825;82;21312;-80
2021/03/12 01:28:16;;;;;;;17.05;6.92;;;;;;;3.17;54.33;98892.98;1809328;79;22511;-79
2021/03/12 01:30:47;;;;;;;16.37;6.12;;;;;;;3.18;54.16;98898.97;1810577;79;21284;-82
2021/03/12 01:33:30;;;;;;;13.45;5.22;;;;;;;3.23;54.76;98894.72;1791717;77;22932;-81
2021/03/12 01:35:59;;;;;;;13.25;6.22;;;;;;;3.13;54.52;98899.41;1777842;80;21284;-81
2021/03/12 01:38:28;;;;;;;12.35;5.47;;;;;;;3.15;54.67;98898.98;1788883;80;21713;-82
2021/03/12 01:40:55;;;;;;;13.38;5.33;;;;;;;3.13;54.89;98893.84;1719093;83;21317;-82
2021/03/12 01:43:24;;;;;;;14.30;6.25;;;;;;;3.13;54.26;98894.28;1735490;82;21197;-82
2021/03/12 01:45:52;;;;;;;14.40;6.12;;;;;;;3.11;54.37;98894.27;1722037;81;21296;-82
2021/03/12 01:48:25;;;;;;;12.60;5.47;;;;;;;3.10;54.94;98890.41;1714113;81;21119;-83
2021/03/12 01:51:00;;;;;;;12.90;5.35;;;;;;;3.10;54.63;98896.83;1723109;82;21112;-82
2021/03/12 01:53:28;;;;;;;14.55;6.35;;;;;;;3.13;54.15;98885.28;1726074;82;21265;-82
2021/03/12 01:55:57;;;;;;;12.40;5.25;;;;;;;3.10;54.95;98883.55;1726453;82;21189;-81
2021/03/12 01:58:27;;;;;;;13.88;5.75;;;;;;;3.10;54.42;98872.42;1739928;81;21307;-81
2021/03/12 02:00:57;;;;;;;12.90;5.25;;;;;;;3.11;54.51;98875.00;1717828;81;21466;-81
2021/03/12 02:03:34;;;;;;;18.57;6.22;;;;;;;3.11;54.30;98871.15;1752832;81;21235;-81
2021/03/12 02:06:10;;;;;;;12.13;5.87;;;;;;;3.08;55.06;98877.55;1717861;82;21261;-82
2021/03/12 02:08:39;;;;;;;12.63;5.20;;;;;;;3.07;54.70;98866.86;1736161;81;21155;-82
2021/03/12 02:11:20;;;;;;;14.47;5.95;;;;;;;3.11;54.41;98858.30;1825774;78;22973;-81
2021/03/12 02:14:05;;;;;;;12.98;6.05;;;;;;;3.07;54.43;98860.44;1812582;79;21513;-82
2021/03/12 02:16:44;;;;;;;15.65;6.10;;;;;;;3.06;54.49;98865.13;1737006;82;21288;-82
2021/03/12 02:19:49;;;;;;;13.55;5.90;;;;;;;3.03;54.93;98867.72;1758037;81;21278;-82
2021/03/12 02:22:21;;;;;;;13.08;5.15;;;;;;;3.05;54.85;98866.44;1770549;81;21125;-81
2021/03/12 02:25:00;;;;;;;13.10;5.75;;;;;;;3.06;54.32;98856.14;1749608;81;21316;-82
2021/03/12 02:27:48;;;;;;;13.10;5.90;;;;;;;3.09;54.41;98846.33;1827790;76;23070;-80
2021/03/12 02:30:17;;;;;;;15.53;6.22;;;;;;;3.00;55.47;98840.73;1796100;77;21271;-81
2021/03/12 02:32:49;;;;;;;13.00;5.80;;;;;;;3.03;54.79;98839.47;1789667;77;21160;-82
2021/03/12 02:35:27;;;;;;;16.25;6.60;;;;;;;3.04;55.78;98832.17;1795733;79;22974;-81
2021/03/12 02:37:57;;;;;;;13.60;5.97;;;;;;;2.96;55.83;98842.46;1755169;80;21791;-82
2021/03/12 02:40:26;;;;;;;12.93;5.70;;;;;;;3.01;55.48;98837.76;1734253;81;21280;-81
2021/03/12 02:42:59;;;;;;;12.23;5.22;;;;;;;2.97;55.98;98842.87;1728255;83;21305;-83
2021/03/12 02:45:29;;;;;;;13.78;6.25;;;;;;;2.98;55.91;98839.88;1727088;81;21296;-82
2021/03/12 02:48:06;;;;;;;15.58;6.65;;;;;;;3.05;55.74;98843.33;1817890;78;22927;-83
2021/03/12 02:50:35;;;;;;;16.67;6.05;;;;;;;2.94;56.00;98836.44;1782548;79;21169;-80
2021/03/12 02:53:05;;;;;;;14.53;6.35;;;;;;;2.99;55.08;98833.46;1793144;79;21253;-81
2021/03/12 02:55:37;;;;;;;10.30;4.95;;;;;;;2.92;55.83;98837.30;1754520;81;21193;-81
2021/03/12 02:58:07;;;;;;;15.48;6.22;;;;;;;2.88;55.52;98834.30;1725831;82;21196;-81
2021/03/12 03:00:35;;;;;;;11.50;5.60;;;;;;;2.81;57.07;98839.02;1757477;81;21750;-82
2021/03/12 03:03:04;;;;;;;13.18;5.50;;;;;;;2.79;57.08;98839.85;1755422;81;21675;-82
2021/03/12 03:05:46;;;;;;;16.87;5.37;;;;;;;2.83;56.17;98840.72;1768331;81;21267;-82
2021/03/12 03:08:16;;;;;;;12.37;5.85;;;;;;;2.72;57.21;98844.96;1748205;82;21296;-81
2021/03/12 03:10:43;;;;;;;18.30;6.08;;;;;;;2.77;56.49;98845.84;1803085;79;21131;-82
2021/03/12 03:13:12;;;;;;;12.40;5.28;;;;;;;2.76;56.41;98847.97;1811063;79;21278;-81
2021/03/12 03:15:41;;;;;;;11.85;5.42;;;;;;;2.70;57.73;98846.67;1813307;79;21139;-81
2021/03/12 03:18:11;;;;;;;12.43;5.65;;;;;;;2.72;56.81;98852.66;1809287;79;21724;-81
2021/03/12 03:20:45;;;;;;;12.82;5.87;;;;;;;2.73;56.48;98850.11;1809404;79;21151;-82
2021/03/12 03:23:14;;;;;;;15.48;6.70;;;;;;;2.72;56.99;98852.23;1778798;79;21122;-79
2021/03/12 03:25:44;;;;;;;13.15;5.70;;;;;;;2.74;57.53;98849.23;1811300;79;21683;-78
2021/03/12 03:28:13;;;;;;;15.13;6.30;;;;;;;2.76;56.38;98859.08;1779058;79;21640;-80
2021/03/12 03:30:41;;;;;;;14.30;6.00;;;;;;;2.75;56.84;98865.52;1735867;82;21176;-82
2021/03/12 03:33:10;;;;;;;14.80;6.62;;;;;;;2.73;58.33;98874.93;1747445;82;22111;-81
2021/03/12 03:35:38;;;;;;;14.58;6.53;;;;;;;2.71;58.17;98868.94;1729272;82;21306;-83
2021/03/12 03:38:05;;;;;;;14.83;5.40;;;;;;;2.65;57.01;98867.20;1776206;79;21196;-81
2021/03/12 03:40:33;;;;;;;16.95;7.58;;;;;;;2.70;58.63;98880.04;1805885;79;21253;-81
2021/03/12 03:43:04;;;;;;;16.35;7.35;;;;;;;2.70;58.05;98880.04;1749051;82;21170;-80
2021/03/12 03:45:33;;;;;;;14.87;6.97;;;;;;;2.71;59.02;98888.19;1768612;81;21295;-81
2021/03/12 03:48:15;;;;;;;16.57;6.90;;;;;;;2.75;59.55;98889.91;1891555;74;23399;-81
2021/03/12 03:50:45;;;;;;;19.80;6.85;;;;;;;2.73;59.57;98882.20;1842111;77;21573;-82
2021/03/12 03:53:15;;;;;;;18.15;7.62;;;;;;;2.77;59.13;98892.05;1868424;75;21279;-82
2021/03/12 03:55:43;;;;;;;13.75;6.42;;;;;;;2.79;57.89;98880.08;1837725;76;21280;-81
2021/03/12 03:58:15;;;;;;;15.28;6.80;;;;;;;2.77;57.94;98872.80;1843934;75;21145;-81
2021/03/12 04:00:43;;;;;;;18.95;7.92;;;;;;;2.73;59.06;98873.21;1844865;76;21153;-80
2021/03/12 04:03:12;;;;;;;16.93;7.58;;;;;;;2.74;58.54;98881.77;1845586;77;21146;-80
2021/03/12 04:05:42;;;;;;;14.10;6.75;;;;;;;2.72;58.28;98893.73;1837093;77;21154;-81
2021/03/12 04:08:10;;;;;;;19.73;7.08;;;;;;;2.76;57.82;98907.86;1841041;76;21279;-83
2021/03/12 04:10:38;;;;;;;20.12;7.67;;;;;;;2.74;58.11;98929.25;1808227;78;21281;-82
2021/03/12 04:13:05;;;;;;;16.10;6.17;;;;;;;2.76;57.58;98933.53;1803080;78;21277;-82
2021/03/12 04:15:33;;;;;;;19.10;7.62;;;;;;;2.68;59.05;98936.50;1761122;80;21134;-82
2021/03/12 04:18:02;;;;;;;16.57;7.45;;;;;;;2.69;59.23;98946.37;1824820;78;21216;-82
2021/03/12 04:20:31;;;;;;;17.62;7.42;;;;;;;2.74;57.87;98948.51;1786725;78;21219;-82
2021/03/12 04:22:59;;;;;;;19.62;7.70;;;;;;;2.64;59.51;98945.05;1790288;78;21266;-83
2021/03/12 04:25:28;;;;;;;20.05;6.35;;;;;;;2.67;58.30;98942.50;1806233;78;21258;-82
2021/03/12 04:27:56;;;;;;;18.65;7.50;;;;;;;2.61;59.94;98943.77;1793536;78;21613;-81
2021/03/12 04:30:25;;;;;;;16.07;6.08;;;;;;;2.60;59.98;98949.73;1800322;78;21674;-82
2021/03/12 04:32:53;;;;;;;19.75;7.92;;;;;;;2.58;60.36;98945.02;1817182;78;21178;-80
2021/03/12 04:35:21;;;;;;;15.63;6.92;;;;;;;2.53;61.18;98948.00;1793424;79;21165;-81
2021/03/12 04:37:50;;;;;;;17.27;7.37;;;;;;;2.56;60.97;98937.73;1798203;79;21173;-83
2021/03/12 04:40:18;;;;;;;15.38;6.80;;;;;;;2.56;60.70;98939.02;1792418;78;21471;-82
2021/03/12 04:42:49;;;;;;;18.10;8.13;;;;;;;2.64;60.38;98948.05;1759322;79;21161;-83
2021/03/12 04:45:19;;;;;;;19.00;8.08;;;;;;;2.61;61.27;98944.16;1773927;79;21529;-82
2021/03/12 04:47:50;;;;;;;16.12;7.25;;;;;;;2.61;64.20;98944.16;1765865;81;21256;-82
2021/03/12 04:50:17;;;;;;;15.43;7.20;;;;;;;2.62;64.61;98944.18;1755720;80;21450;-82
2021/03/12 04:52:45;;;;;;;14.53;6.83;;;;;;;2.59;66.09;98947.59;1750409;81;21289;-83
2021/03/12 04:55:15;;;;;;;17.32;7.35;;;;;;;2.64;65.87;98940.34;1778071;79;21126;-83
2021/03/12 04:57:45;;;;;;;18.27;8.25;;;;;;;2.66;65.75;98933.50;1792285;80;21143;-82
2021/03/12 05:00:16;;;;;;;17.25;8.13;;;;;;;2.59;66.26;98943.75;1782246;79;21232;-83
2021/03/12 05:02:55;;;;;;;13.20;6.78;;;;;;;2.55;66.31;98945.87;1756783;81;21268;-83
2021/03/12 05:05:24;;;;;;;14.65;5.95;;;;;;;2.57;65.76;98946.73;1746825;80;21256;-83
2021/03/12 05:07:53;;;;;;;13.50;7.20;;;;;;;2.57;65.61;98958.28;1768193;80;21173;-82
2021/03/12 05:10:26;;;;;;;14.65;6.83;;;;;;;2.59;65.00;98956.58;1765919;81;21702;-83
2021/03/12 05:12:55;;;;;;;14.10;6.53;;;;;;;2.61;63.45;98952.75;1738637;82;21276;-83
2021/03/12 05:15:26;;;;;;;14.23;6.53;;;;;;;2.58;64.71;98933.47;1756936;80;21237;-83
2021/03/12 05:17:55;;;;;;;13.53;6.37;;;;;;;2.63;63.94;98934.36;1763296;80;21295;-83
2021/03/12 05:20:24;;;;;;;17.10;7.20;;;;;;;2.70;62.48;98917.27;1757743;79;21678;-82
2021/03/12 05:22:52;;;;;;;16.62;7.60;;;;;;;2.67;64.42;98919.84;1810966;78;21291;-82
2021/03/12 05:25:20;;;;;;;15.90;7.12;;;;;;;2.68;65.00;98906.13;1834705;77;21143;-82
2021/03/12 05:27:47;;;;;;;16.30;7.00;;;;;;;2.66;65.63;98911.25;1837747;78;21305;-82
2021/03/12 05:30:15;;;;;;;17.42;6.78;;;;;;;2.62;66.17;98907.39;1831050;77;21139;-83
2021/03/12 05:32:43;;;;;;;18.67;7.92;;;;;;;2.59;68.65;98910.38;1850706;78;21113;-82
2021/03/12 05:35:12;;;;;;;18.50;7.50;;;;;;;2.58;67.99;98898.82;1825974;78;21229;-82
2021/03/12 05:37:39;;;;;;;19.57;7.53;;;;;;;2.55;67.26;98908.66;1821435;77;21285;-83
2021/03/12 05:40:09;;;;;;;19.15;7.70;;;;;;;2.51;70.33;98903.08;1804457;77;21150;-82
2021/03/12 05:42:42;;;;;;;19.42;7.72;;;;;;;2.45;72.94;98897.05;1833174;78;21142;-82
2021/03/12 05:45:11;;;;;;;23.77;9.98;;;;;;;2.53;72.01;98905.23;1832761;78;21158;-79
2021/03/12 05:47:41;;;;;;;20.92;9.10;;;;;;;2.53;70.87;98909.08;1850629;77;21163;-81
2021/03/12 05:50:10;;;;;;;20.75;9.13;;;;;;;2.53;71.76;98914.20;1830082;76;21258;-82
2021/03/12 05:52:38;;;;;;;19.55;8.75;;;;;;;2.45;74.25;98913.32;1843579;77;21320;-81
2021/03/12 05:55:07;;;;;;;15.72;8.20;;;;;;;2.49;74.46;98911.63;1836419;77;21293;-81
2021/03/12 05:57:35;;;;;;;23.07;8.70;;;;;;;2.54;71.82;98910.77;1835179;76;21248;-83
2021/03/12 06:00:06;;;;;;;20.50;9.08;;;;;;;2.45;73.02;98905.63;1836270;76;21285;-83
2021/03/12 06:02:35;;;;;;;19.98;8.88;;;;;;;2.46;75.42;98913.73;1821605;77;21293;-83
2021/03/12 06:05:07;;;;;;;21.35;7.83;;;;;;;2.46;75.59;98912.45;1841118;77;21311;-83
2021/03/12 06:07:38;;;;;;;18.95;8.93;;;;;;;2.47;77.56;98909.48;1806543;76;21146;-79
2021/03/12 06:10:09;;;;;;;17.92;7.20;;;;;;;2.53;75.96;98912.08;1720677;82;21200;-83
2021/03/12 06:12:38;;;;;;;19.17;7.80;;;;;;;2.52;77.36;98906.50;1807252;78;21205;-81
2021/03/12 06:15:07;;;;;;;16.20;7.45;;;;;;;2.52;77.25;98905.22;1810587;78;21248;-82
2021/03/12 06:17:46;;;;;;;19.73;7.72;;;;;;;2.59;77.63;98907.81;1810078;79;21516;-82
2021/03/12 06:20:19;;;;;;;17.30;8.03;;;;;;;2.65;77.45;98910.84;1743776;79;21211;-82
2021/03/12 06:22:56;;;;;;;19.10;7.78;;;;;;;2.66;77.89;98920.67;1763521;81;21239;-83
2021/03/12 06:25:27;;;;;;;17.75;7.75;;;;;;;2.64;78.37;98932.20;1731643;81;21242;-81
2021/03/12 06:28:18;;;;;;;20.85;7.87;;;;;;;2.63;78.51;98924.09;1804368;79;21284;-82
2021/03/12 06:31:25;;;;;;;15.40;7.58;;;;;;;2.64;78.29;98933.92;1769585;80;21077;-82
2021/03/12 06:34:10;;;;;;;18.95;8.00;;;;;;;2.59;78.59;98927.06;1745457;79;21109;-81
2021/03/12 06:36:56;;;;;;;15.30;7.40;;;;;;;2.57;78.56;98915.94;1782532;80;21217;-84
2021/03/12 06:39:31;;;;;;;15.90;6.90;;;;;;;2.53;79.35;98912.92;1764107;80;21215;-83
2021/03/12 06:42:09;;;;;;;18.70;7.97;;;;;;;2.59;75.24;98921.08;1786117;80;21142;-83
2021/03/12 06:44:39;;;;;;;17.50;7.95;;;;;;;2.61;75.72;98917.21;1789213;79;21133;-82
2021/03/12 06:47:21;;;;;;;17.20;7.90;;;;;;;2.62;79.68;98912.09;1790469;80;21256;-84
2021/03/12 06:49:57;;;;;;;17.70;7.40;;;;;;;2.68;78.97;98906.98;1771958;80;21271;-81
2021/03/12 06:52:37;;;;;;;17.02;7.22;;;;;;;2.78;77.41;98909.16;1741013;82;21149;-85
2021/03/12 06:55:07;;;;;;;19.37;6.92;;;;;;;2.86;79.48;98915.17;1779360;79;21541;-83
2021/03/12 06:57:48;;;;;;;17.17;8.33;;;;;;;2.94;79.65;98921.18;1771378;79;23170;-80
2021/03/12 07:00:21;;;;;;;19.57;7.95;;;;;;;2.84;80.23;98923.73;1698546;82;21299;-82
2021/03/12 07:02:50;;;;;;;17.32;7.85;;;;;;;2.92;77.42;98937.02;1688479;83;21256;-83
2021/03/12 07:05:23;;;;;;;15.78;7.87;;;;;;;2.92;76.74;98929.31;1726760;82;21149;-83
2021/03/12 07:07:54;;;;;;;18.40;8.70;;;;;;;2.90;78.34;98927.16;1724432;82;21677;-83
2021/03/12 07:10:35;;;;;;;18.75;8.30;;;;;;;2.97;77.88;98927.63;1818828;77;22986;-84
2021/03/12 07:13:04;;;;;;;17.80;7.75;;;;;;;2.99;76.16;98929.77;1796406;80;21597;-83
2021/03/12 07:15:33;;;;;;;20.17;8.75;;;;;;;3.02;77.39;98929.34;1770960;78;21294;-84
2021/03/12 07:18:05;;;;;;;20.48;7.10;;;;;;;2.89;79.67;98930.60;1800933;78;21545;-84
2021/03/12 07:20:33;;;;;;;17.42;6.80;;;;;;;2.92;78.76;98938.30;1830961;78;21289;-83
2021/03/12 07:23:03;;;;;;;16.27;7.50;;;;;;;2.94;79.34;98939.16;1766313;79;21286;-84
2021/03/12 07:25:34;;;;;;;19.02;7.42;;;;;;;3.02;77.93;98935.77;1773571;81;21217;-84
2021/03/12 07:28:05;;;;;;;16.80;7.87;;;;;;;2.98;79.36;98940.03;1773332;81;21165;-84
2021/03/12 07:30:38;;;;;;;16.02;7.47;;;;;;;2.97;79.63;98943.47;1773046;81;21284;-83
2021/03/12 07:33:06;;;;;;;18.15;8.23;;;;;;;3.05;79.04;98943.49;1774079;81;21284;-83
2021/03/12 07:35:38;;;;;;;15.90;7.70;;;;;;;3.02;78.69;98946.04;1772972;81;21195;-84
2021/03/12 07:38:16;;;;;;;18.40;8.53;;;;;;;3.19;78.03;98938.80;1804341;78;23398;-86
2021/03/12 07:40:45;;;;;;;19.12;9.73;;;;;;;3.14;77.85;98939.64;1795936;79;21290;-85
2021/03/12 07:43:17;;;;;;;21.07;8.78;;;;;;;3.29;77.06;98929.41;1819475;78;21280;-84
2021/03/12 07:46:12;;;;;;;22.48;9.80;;;;;;;3.44;78.29;98931.55;1816678;77;22916;-82
2021/03/12 07:48:56;;;;;;;22.50;10.18;;;;;;;3.55;77.69;98932.44;1761340;79;21236;-83
2021/03/12 07:51:48;;;;;;;22.32;10.00;;;;;;;3.66;78.22;98908.88;1822169;76;23649;-88
2021/03/12 07:54:40;;;;;;;24.23;9.15;;;;;;;3.67;77.48;98901.58;1801724;79;21181;-83
2021/03/12 07:57:39;;;;;;;24.32;9.68;;;;;;;3.77;77.21;98893.00;1785192;79;21137;-87
2021/03/12 08:00:18;;;;;;;21.68;8.83;;;;;;;3.77;77.54;98912.28;1785213;80;21234;-85
2021/03/12 08:03:05;;;;;;;20.77;8.33;;;;;;;3.88;78.10;98926.84;1783880;77;21276;-84
2021/03/12 08:05:45;;;;;;;17.12;8.65;;;;;;;4.06;76.49;98925.56;1837534;78;22997;-86
2021/03/12 08:08:37;;;;;;;18.25;8.83;;;;;;;4.08;76.33;98937.98;1717674;82;21610;-82
2021/03/12 08:11:33;;;;;;;17.35;8.75;;;;;;;4.18;75.49;98916.52;1822850;77;22891;-86
2021/03/12 08:14:17;;;;;;;16.05;8.18;;;;;;;4.27;75.00;98904.48;1808640;78;21164;-83
2021/03/12 08:17:04;;;;;;;18.57;9.13;;;;;;;4.42;74.16;98886.44;1795167;78;21186;-84
2021/03/12 08:19:37;;;;;;;16.60;8.60;;;;;;;4.53;74.14;98872.22;1794937;78;21177;-81
2021/03/12 08:22:34;;;;;;;18.12;8.18;;;;;;;4.75;73.07;98864.80;1817984;78;23337;-88
2021/03/12 08:25:05;;;;;;;18.65;8.48;;;;;;;4.81;72.18;98871.65;1731443;82;21168;-82
2021/03/12 08:27:49;;;;;;;18.40;8.65;;;;;;;4.84;71.88;98860.50;1862732;76;22908;-88
2021/03/12 08:30:36;;;;;;;22.05;7.42;;;;;;;4.91;71.87;98875.88;1755356;81;21426;-84
2021/03/12 08:33:30;;;;;;;15.93;7.03;;;;;;;5.02;71.54;98874.98;1756889;79;21240;-83
2021/03/12 08:36:06;;;;;;;21.15;7.53;;;;;;;5.10;71.75;98877.92;1700631;79;21291;-83
2021/03/12 08:38:45;;;;;;;23.77;9.75;;;;;;;5.18;72.32;98875.30;1676149;85;21306;-84
2021/03/12 08:41:25;;;;;;;25.95;9.30;;;;;;;5.28;72.43;98864.50;1790814;79;23261;-88
2021/03/12 08:44:13;;;;;;;20.17;8.93;;;;;;;5.35;72.78;98867.43;1769085;80;21174;-83
2021/03/12 08:47:00;;;;;;;18.32;9.40;;;;;;;5.37;72.29;98866.58;1778931;80;21508;-84
2021/03/12 08:49:31;;;;;;;18.32;8.55;;;;;;;5.28;72.30;98861.92;1786835;80;21430;-85
2021/03/12 08:52:01;;;;;;;19.25;7.70;;;;;;;5.42;71.99;98865.68;1742098;81;21269;-82
2021/03/12 08:54:30;;;;;;;17.12;7.72;;;;;;;5.54;71.42;98867.70;1764440;81;21234;-84
2021/03/12 08:57:20;;;;;;;15.93;7.78;;;;;;;5.64;71.64;98858.62;1765397;81;21238;-83
2021/03/12 09:00:08;;;;;;;18.95;7.55;;;;;;;5.80;70.85;98853.73;1762723;80;21151;-83
2021/03/12 09:02:44;;;;;;;19.25;7.97;;;;;;;6.10;70.23;98840.13;1847870;76;23014;-88
2021/03/12 09:05:26;;;;;;;17.00;6.47;;;;;;;6.22;69.89;98843.84;1795382;78;21231;-84
2021/03/12 09:08:03;;;;;;;19.15;7.85;;;;;;;6.48;69.77;98834.94;1850392;76;23479;-88
2021/03/12 09:10:33;;;;;;;19.82;6.72;;;;;;;6.63;69.77;98841.65;1786425;78;21208;-83
2021/03/12 09:13:21;;;;;;;20.40;7.25;;;;;;;6.79;68.51;98856.51;1772304;75;21295;-82
2021/03/12 09:15:51;;;;;;;18.15;7.15;;;;;;;6.89;68.17;98860.22;1808519;79;21260;-82
2021/03/12 09:18:23;;;;;;;12.80;5.97;;;;;;;6.94;67.07;98855.86;1790360;79;21298;-84
2021/03/12 09:21:07;;;;;;;16.57;6.58;;;;;;;7.06;67.61;98866.46;1790467;79;21321;-83
2021/03/12 09:23:49;;;;;;;16.85;7.65;;;;;;;7.08;66.54;98876.75;1790407;79;21262;-83
2021/03/12 09:26:28;;;;;;;16.45;6.80;;;;;;;7.07;66.48;98873.33;1760123;79;21094;-83
2021/03/12 09:29:08;;;;;;;17.67;6.78;;;;;;;7.13;64.14;98874.52;1820384;77;22937;-82
2021/03/12 09:31:41;;;;;;;13.93;7.47;;;;;;;7.12;64.44;98879.30;1797090;78;21188;-83
2021/03/12 09:34:14;;;;;;;17.77;7.87;;;;;;;7.23;64.95;98887.33;1806867;78;21259;-84
2021/03/12 09:36:52;;;;;;;21.60;8.70;;;;;;;7.35;65.44;98870.33;1830598;78;22932;-89
2021/03/12 09:39:40;;;;;;;19.02;8.30;;;;;;;7.36;65.00;98866.43;1810795;79;21256;-84
2021/03/12 09:42:12;;;;;;;18.00;7.90;;;;;;;7.41;65.11;98853.86;1793196;79;21294;-85
2021/03/12 09:44:46;;;;;;;23.12;7.72;;;;;;;7.46;64.94;98852.03;1798884;79;21269;-85
2021/03/12 09:47:13;;;;;;;17.80;7.15;;;;;;;7.52;64.22;98842.46;1791850;79;21252;-83
2021/03/12 09:49:45;;;;;;;16.40;6.90;;;;;;;7.45;64.17;98835.67;1803073;79;21275;-83
2021/03/12 09:52:19;;;;;;;13.98;6.50;;;;;;;7.52;64.02;98827.36;1788385;79;21319;-83
2021/03/12 09:55:03;;;;;;;13.45;6.75;;;;;;;7.46;63.69;98832.22;1807944;79;21215;-82
2021/03/12 09:57:30;;;;;;;15.32;6.95;;;;;;;7.56;63.88;98816.11;1793077;79;21293;-82
2021/03/12 09:59:59;;;;;;;11.78;6.47;;;;;;;7.68;63.18;98817.18;1820340;79;21165;-83
2021/03/12 10:02:30;;;;;;;16.60;7.08;;;;;;;7.60;63.50;98828.52;1734830;82;21169;-83
2021/03/12 10:05:03;;;;;;;15.00;7.15;;;;;;;7.73;63.51;98837.34;1774227;81;21312;-84
2021/03/12 10:07:46;;;;;;;17.75;8.58;;;;;;;7.93;62.52;98836.13;1788665;77;29200;-89
2021/03/12 10:10:29;;;;;;;18.98;7.25;;;;;;;7.95;62.52;98842.13;1813356;79;21296;-84
2021/03/12 10:13:04;;;;;;;28.90;7.33;;;;;;;8.04;62.24;98841.09;1730905;82;21240;-83
2021/03/12 10:15:37;;;;;;;21.97;8.63;;;;;;;8.07;60.78;98871.67;1819772;79;21237;-83
2021/03/12 10:18:26;;;;;;;18.50;6.83;;;;;;;8.20;58.75;98835.18;1755353;81;21197;-83
2021/03/12 10:21:10;;;;;;;15.03;6.83;;;;;;;8.41;58.46;98840.39;1845729;76;22229;-84
2021/03/12 10:23:39;;;;;;;13.95;6.25;;;;;;;8.41;57.77;98852.05;1782975;79;21160;-88
2021/03/12 10:26:08;;;;;;;16.12;7.20;;;;;;;8.50;58.51;98856.63;1791963;80;21315;-80
2021/03/12 10:28:35;;;;;;;10.50;6.30;;;;;;;8.58;57.40;98856.94;1816940;79;21193;-79
2021/03/12 10:31:04;;;;;;;17.12;7.50;;;;;;;8.53;57.14;98860.47;1724763;82;21231;-82
2021/03/12 10:33:32;;;;;;;14.65;6.90;;;;;;;8.70;57.66;98859.26;1744363;81;21716;-81
2021/03/12 10:36:04;;;;;;;18.12;6.72;;;;;;;8.62;57.26;98846.45;1784661;79;21153;-82
2021/03/12 10:38:35;;;;;;;15.85;6.17;;;;;;;8.78;57.24;98844.39;1792479;79;21143;-82
2021/03/12 10:41:24;;;;;;;11.10;6.37;;;;;;;8.79;56.78;98851.27;1792664;79;21300;-81
2021/03/12 10:43:57;;;;;;;10.63;5.97;;;;;;;8.81;56.70;98845.60;1790492;79;21160;-81
2021/03/12 10:46:24;;;;;;;13.67;6.90;;;;;;;8.87;57.07;98841.61;1812741;79;21106;-81
2021/03/12 10:48:52;;;;;;;11.73;6.10;;;;;;;8.83;56.92;98858.09;1778387;78;22193;-82
2021/03/12 10:51:20;;;;;;;10.43;6.33;;;;;;;8.73;56.98;98827.66;1788921;79;21149;-82
2021/03/12 10:53:54;;;;;;;10.68;6.12;;;;;;;8.87;57.29;98823.46;1794154;79;21763;-81
2021/03/12 10:56:24;;;;;;;13.55;6.55;;;;;;;8.84;56.95;98826.11;1790061;78;21786;-82
2021/03/12 10:58:54;;;;;;;16.15;7.37;;;;;;;8.78;57.19;98821.06;1802896;79;21659;-81
2021/03/12 11:01:29;;;;;;;13.20;6.72;;;;;;;8.84;57.57;98826.11;1802591;79;21174;-83
2021/03/12 11:04:00;;;;;;;14.50;6.70;;;;;;;8.70;57.68;98826.86;1811965;78;21163;-82
2021/03/12 11:06:31;;;;;;;16.35;7.92;;;;;;;8.69;57.70;98832.47;1811275;79;21291;-82
2021/03/12 11:08:58;;;;;;;15.70;6.87;;;;;;;8.76;57.75;98830.61;1810160;79;21181;-82
2021/03/12 11:11:26;;;;;;;15.35;6.42;;;;;;;8.75;58.16;98823.70;1712099;82;21184;-81
2021/03/12 11:13:55;;;;;;;11.05;6.58;;;;;;;8.76;58.31;98821.55;1748564;80;21152;-85
2021/03/12 11:16:22;;;;;;;13.88;6.58;;;;;;;8.86;58.00;98811.37;1743506;81;21170;-83
2021/03/12 11:18:50;;;;;;;18.30;7.50;;;;;;;8.81;57.60;98807.17;1801210;79;21156;-84
2021/03/12 11:21:18;;;;;;;12.82;7.25;;;;;;;8.88;58.01;98812.19;1789471;79;21261;-82
2021/03/12 11:23:46;;;;;;;15.48;7.17;;;;;;;8.95;57.66;98804.69;1778062;79;21161;-79
2021/03/12 11:26:14;;;;;;;15.38;7.85;;;;;;;8.96;57.38;98793.87;1782004;79;21256;-82
2021/03/12 11:28:44;;;;;;;12.63;7.65;;;;;;;9.09;57.25;98806.09;1800632;79;21729;-82
2021/03/12 11:31:13;;;;;;;15.95;8.15;;;;;;;9.14;57.18;98799.91;1798601;78;21256;-82
2021/03/12 11:33:41;;;;;;;21.27;7.70;;;;;;;9.18;56.87;98792.06;1790747;78;21185;-79
2021/03/12 11:36:10;;;;;;;15.38;7.45;;;;;;;9.21;56.68;98789.37;1796351;78;21145;-79
2021/03/12 11:38:38;;;;;;;16.30;8.20;;;;;;;9.41;56.61;98787.59;1788364;79;21181;-79
2021/03/12 11:41:06;;;;;;;18.42;7.22;;;;;;;9.48;55.73;98804.27;1794520;79;21159;-79
2021/03/12 11:43:36;;;;;;;16.00;7.53;;;;;;;9.68;55.46;98814.59;1776915;79;21480;-84
2021/03/12 11:46:05;;;;;;;15.18;7.55;;;;;;;9.75;54.94;98812.25;1796802;79;21152;-80
2021/03/12 11:48:32;;;;;;;13.48;6.90;;;;;;;9.79;54.82;98803.91;1735952;81;21155;-80
2021/03/12 11:51:00;;;;;;;11.80;6.55;;;;;;;9.77;54.50;98796.19;1734577;82;21183;-79
2021/03/12 11:53:30;;;;;;;13.43;7.22;;;;;;;9.77;54.15;98794.89;1740682;82;21834;-80
2021/03/12 11:55:57;;;;;;;15.05;7.08;;;;;;;9.93;54.18;98793.58;1782730;79;21161;-80
2021/03/12 11:58:24;;;;;;;18.90;7.70;;;;;;;10.28;53.05;98784.38;1765749;79;21676;-81
2021/03/12 12:00:51;;;;;;;13.03;6.45;;;;;;;10.12;52.70;98787.41;1786036;79;21602;-82